createdAt,value
2017-07-24T00:00:59.561Z,17.40
2017-07-24T00:05:47.153Z,17.60
2017-07-24T00:10:33.786Z,17.50
2017-07-24T00:15:20.453Z,17.50
2017-07-24T00:20:07.282Z,17.60
2017-07-24T00:24:54.265Z,17.40
2017-07-24T00:29:40.994Z,17.40
2017-07-24T00:34:27.653Z,17.40
2017-07-24T00:39:14.293Z,17.60
2017-07-24T00:44:01.044Z,17.80
2017-07-24T00:48:47.701Z,17.70
2017-07-24T00:53:35.161Z,17.70
2017-07-24T00:58:21.881Z,17.70
2017-07-24T01:03:08.484Z,17.70
2017-07-24T01:07:55.992Z,17.80
2017-07-24T01:12:42.628Z,17.70
2017-07-24T01:17:29.245Z,17.80
2017-07-24T01:22:15.897Z,17.90
2017-07-24T01:27:02.553Z,17.80
2017-07-24T01:31:49.510Z,17.90
2017-07-24T01:36:36.097Z,17.80
2017-07-24T01:41:22.735Z,17.70
2017-07-24T01:46:09.433Z,17.60
2017-07-24T01:50:56.178Z,17.60
2017-07-24T01:55:42.826Z,17.70
2017-07-24T02:00:29.696Z,17.60
2017-07-24T02:05:16.290Z,17.50
2017-07-24T02:10:03.905Z,17.50
2017-07-24T02:14:50.552Z,17.50
2017-07-24T02:19:37.925Z,17.50
2017-07-24T02:24:24.604Z,17.50
2017-07-24T02:29:11.988Z,17.60
2017-07-24T02:33:58.624Z,17.50
2017-07-24T02:38:45.225Z,17.50
2017-07-24T02:43:31.963Z,17.40
2017-07-24T02:48:18.810Z,17.50
2017-07-24T02:53:05.716Z,17.60
2017-07-24T02:57:53.145Z,17.50
2017-07-24T03:02:39.760Z,17.60
2017-07-24T03:07:26.601Z,17.60
2017-07-24T03:12:13.288Z,17.40
2017-07-24T03:17:00.146Z,17.60
2017-07-24T03:21:46.785Z,17.50
2017-07-24T03:26:33.462Z,17.40
2017-07-24T03:31:20.443Z,17.50
2017-07-24T03:36:07.236Z,17.50
2017-07-24T03:40:53.845Z,17.50
2017-07-24T03:45:40.708Z,17.50
2017-07-24T03:50:27.451Z,17.30
2017-07-24T03:55:14.124Z,17.30
2017-07-24T04:00:01.169Z,17.30
2017-07-24T04:04:47.759Z,17.20
2017-07-24T04:09:34.351Z,17.20
2017-07-24T04:14:20.960Z,17.10
2017-07-24T04:19:08.329Z,17.20
2017-07-24T04:23:54.958Z,17.10
2017-07-24T04:28:41.733Z,17.00
2017-07-24T04:33:29.122Z,16.80
2017-07-24T04:38:16.061Z,16.80
2017-07-24T04:43:02.687Z,16.70
2017-07-24T04:47:50.068Z,16.40
2017-07-24T04:52:36.685Z,16.40
2017-07-24T04:57:24.067Z,16.30
2017-07-24T05:02:10.798Z,16.30
2017-07-24T05:06:57.666Z,16.40
2017-07-24T05:11:45.382Z,16.40
2017-07-24T05:16:32.016Z,16.40
2017-07-24T05:21:19.423Z,16.60
2017-07-24T05:26:06.052Z,16.50
2017-07-24T05:30:52.657Z,16.70
2017-07-24T05:35:39.607Z,16.90
2017-07-24T05:40:26.245Z,16.90
2017-07-24T05:45:13.634Z,16.60
2017-07-24T05:50:00.259Z,16.60
2017-07-24T05:54:46.881Z,16.60
2017-07-24T05:59:33.505Z,16.60
2017-07-24T06:04:20.112Z,16.70
2017-07-24T06:09:06.873Z,16.80
2017-07-24T06:13:53.550Z,16.80
2017-07-24T06:18:40.181Z,16.90
2017-07-24T06:23:26.838Z,17.00
2017-07-24T06:28:13.500Z,17.20
2017-07-24T06:33:00.276Z,17.30
2017-07-24T06:37:46.952Z,17.30
2017-07-24T06:42:33.596Z,17.40
2017-07-24T06:47:20.248Z,17.40
2017-07-24T06:52:06.875Z,17.60
2017-07-24T06:56:54.250Z,17.80
2017-07-24T07:01:40.913Z,17.80
2017-07-24T07:06:27.839Z,17.70
2017-07-24T07:11:14.453Z,17.70
2017-07-24T07:16:01.072Z,17.60
2017-07-24T07:20:47.722Z,17.70
2017-07-24T07:25:35.097Z,18.10
2017-07-24T07:30:21.770Z,18.00
2017-07-24T07:35:08.385Z,18.00
2017-07-24T07:39:55.308Z,18.20
2017-07-24T07:44:41.996Z,18.40
2017-07-24T07:49:28.749Z,18.50
2017-07-24T07:54:15.486Z,18.50
2017-07-24T07:59:02.852Z,18.60
2017-07-24T08:03:49.476Z,18.50
2017-07-24T08:08:36.101Z,18.60
2017-07-24T08:13:23.064Z,18.60
2017-07-24T08:18:09.659Z,18.50
2017-07-24T08:22:56.280Z,18.50
2017-07-24T08:27:42.907Z,18.60
2017-07-24T08:32:29.686Z,18.60
2017-07-24T08:37:17.072Z,18.60
2017-07-24T08:42:03.699Z,18.60
2017-07-24T08:46:50.440Z,18.60
2017-07-24T08:51:37.124Z,18.50
2017-07-24T08:56:23.744Z,18.30
2017-07-24T09:01:10.487Z,18.30
2017-07-24T09:05:57.220Z,18.50
2017-07-24T09:10:43.864Z,18.60
2017-07-24T09:15:31.701Z,18.70
2017-07-24T09:20:18.322Z,18.70
2017-07-24T09:25:04.996Z,18.70
2017-07-24T09:29:51.635Z,18.70
2017-07-24T09:34:38.283Z,18.60
2017-07-24T09:39:24.963Z,18.50
2017-07-24T09:44:11.722Z,18.50
2017-07-24T09:48:58.737Z,18.50
2017-07-24T09:53:45.402Z,18.50
2017-07-24T09:58:31.990Z,18.60
2017-07-24T10:03:18.621Z,18.70
2017-07-24T10:08:05.246Z,18.80
2017-07-24T10:12:52.608Z,18.80
2017-07-24T10:17:39.200Z,18.80
2017-07-24T10:22:26.738Z,18.80
2017-07-24T10:27:14.080Z,18.80
2017-07-24T10:32:01.484Z,18.90
2017-07-24T10:36:48.102Z,18.90
2017-07-24T10:41:34.716Z,19.00
2017-07-24T10:46:21.794Z,18.90
2017-07-24T10:51:09.286Z,18.90
2017-07-24T10:55:55.901Z,18.90
2017-07-24T11:00:42.508Z,18.90
2017-07-24T11:05:29.158Z,19.00
2017-07-24T11:10:15.796Z,19.10
2017-07-24T11:15:02.416Z,19.00
2017-07-24T11:19:49.429Z,18.90
2017-07-24T11:24:36.047Z,18.90
2017-07-24T11:29:22.763Z,18.90
2017-07-24T11:34:09.540Z,18.80
2017-07-24T11:38:56.188Z,18.90
2017-07-24T11:43:42.809Z,18.80
2017-07-24T11:48:29.436Z,18.80
2017-07-24T11:53:16.328Z,18.80
2017-07-24T11:58:02.938Z,18.70
2017-07-24T12:02:50.368Z,18.60
2017-07-24T12:07:37.790Z,18.70
2017-07-24T12:12:24.418Z,18.70
2017-07-24T12:17:11.624Z,18.90
2017-07-24T12:21:58.239Z,18.90
2017-07-24T12:26:44.941Z,18.90
2017-07-24T12:31:32.036Z,18.80
2017-07-24T12:36:19.393Z,18.90
2017-07-24T12:41:06.373Z,18.90
2017-07-24T12:45:53.248Z,18.80
2017-07-24T12:50:40.010Z,18.70
2017-07-24T12:55:26.630Z,18.60
2017-07-24T13:00:13.353Z,18.70
2017-07-24T13:05:00.297Z,18.70
2017-07-24T13:09:46.944Z,18.60
2017-07-24T13:14:33.607Z,18.50
2017-07-24T13:19:20.320Z,18.30
2017-07-24T13:24:06.977Z,18.10
2017-07-24T13:28:54.094Z,18.00
2017-07-24T13:33:40.698Z,17.90
2017-07-24T13:38:27.466Z,18.00
2017-07-24T13:43:14.840Z,18.10
2017-07-24T13:48:03.227Z,18.10
2017-07-24T13:52:50.016Z,18.10
2017-07-24T13:57:36.666Z,18.10
2017-07-24T14:02:23.343Z,18.00
2017-07-24T14:07:10.882Z,17.80
2017-07-24T14:11:58.262Z,17.70
2017-07-24T14:16:45.438Z,17.60
2017-07-24T14:21:32.103Z,17.60
2017-07-24T14:26:19.022Z,17.70
2017-07-24T14:31:05.990Z,17.70
2017-07-24T14:35:52.769Z,17.70
2017-07-24T14:40:39.759Z,17.70
2017-07-24T14:45:26.397Z,17.80
2017-07-24T14:50:14.216Z,17.40
2017-07-24T14:55:01.182Z,17.40
2017-07-24T14:59:47.841Z,16.10
2017-07-24T15:04:34.480Z,15.30
2017-07-24T15:09:21.611Z,14.90
2017-07-24T15:14:09.938Z,14.90
2017-07-24T15:18:56.569Z,15.00
2017-07-24T15:23:43.193Z,15.10
2017-07-24T15:28:29.929Z,15.20
2017-07-24T15:33:16.859Z,15.20
2017-07-24T15:38:03.513Z,15.30
2017-07-24T15:42:51.381Z,15.50
2017-07-24T15:47:38.197Z,15.50
2017-07-24T15:52:25.638Z,15.70
2017-07-24T15:57:12.470Z,15.70
2017-07-24T16:01:59.119Z,15.70
2017-07-24T16:06:46.085Z,15.70
2017-07-24T16:11:32.955Z,15.70
2017-07-24T16:16:19.793Z,15.80
2017-07-24T16:21:06.418Z,15.80
2017-07-24T16:25:53.051Z,15.90
2017-07-24T16:30:39.959Z,15.80
2017-07-24T16:35:26.702Z,15.80
2017-07-24T16:40:13.365Z,15.80
2017-07-24T16:45:00.913Z,15.90
2017-07-24T16:49:47.625Z,15.90
2017-07-24T16:54:34.989Z,16.00
2017-07-24T16:59:21.647Z,16.00
2017-07-24T17:04:08.290Z,16.00
2017-07-24T17:08:55.713Z,15.90
2017-07-24T17:13:42.668Z,15.80
2017-07-24T17:18:29.359Z,15.90
2017-07-24T17:23:16.000Z,15.80
2017-07-24T17:28:02.641Z,15.80
2017-07-24T17:32:49.290Z,15.80
2017-07-24T17:37:35.940Z,15.80
2017-07-24T17:42:22.632Z,15.70
2017-07-24T17:47:09.377Z,15.60
2017-07-24T17:51:56.028Z,15.60
2017-07-24T17:56:43.448Z,15.70
2017-07-24T18:01:30.115Z,15.70
2017-07-24T18:06:16.880Z,15.70
2017-07-24T18:11:03.606Z,15.80
2017-07-24T18:15:50.372Z,15.80
2017-07-24T18:20:37.091Z,15.90
2017-07-24T18:25:23.905Z,15.90
2017-07-24T18:30:11.285Z,15.70
2017-07-24T18:34:57.967Z,15.70
2017-07-24T18:39:44.629Z,15.60
2017-07-24T18:44:31.440Z,15.60
2017-07-24T18:49:18.146Z,15.50
2017-07-24T18:54:04.865Z,15.40
2017-07-24T18:58:51.598Z,15.40
2017-07-24T19:03:38.227Z,15.20
2017-07-24T19:08:24.924Z,15.10
2017-07-24T19:13:12.369Z,15.10
2017-07-24T19:17:59.127Z,15.10
2017-07-24T19:22:45.928Z,15.00
2017-07-24T19:27:32.768Z,15.20
2017-07-24T19:32:19.509Z,15.30
2017-07-24T19:37:06.232Z,15.40
2017-07-24T19:41:52.985Z,15.30
2017-07-24T19:46:40.461Z,15.40
2017-07-24T19:51:27.198Z,15.40
2017-07-24T19:56:14.407Z,15.30
2017-07-24T20:01:01.147Z,15.40
2017-07-24T20:05:47.856Z,15.40
2017-07-24T20:10:34.578Z,15.40
2017-07-24T20:15:21.298Z,15.50
2017-07-24T20:20:08.040Z,15.50
2017-07-24T20:24:54.736Z,15.20
2017-07-24T20:29:42.166Z,14.30
2017-07-24T20:34:29.582Z,14.20
2017-07-24T20:39:16.237Z,14.10
2017-07-24T20:44:02.966Z,14.20
2017-07-24T20:48:49.606Z,14.10
2017-07-24T20:53:36.221Z,14.10
2017-07-24T20:58:23.570Z,14.20
2017-07-24T21:03:10.285Z,14.10
2017-07-24T21:07:57.157Z,14.00
2017-07-24T21:12:43.807Z,14.00
2017-07-24T21:17:30.519Z,13.90
2017-07-24T21:22:17.901Z,13.90
2017-07-24T21:27:04.528Z,13.90
2017-07-24T21:31:51.181Z,13.80
2017-07-24T21:36:37.822Z,13.70
2017-07-24T21:41:24.687Z,13.60
2017-07-24T21:46:11.353Z,13.40
2017-07-24T21:50:58.751Z,13.30
2017-07-24T21:55:45.384Z,13.20
2017-07-24T22:00:32.160Z,13.10
2017-07-24T22:05:18.822Z,13.10
2017-07-24T22:10:05.457Z,13.00
2017-07-24T22:14:52.229Z,13.00
2017-07-24T22:19:38.965Z,12.90
2017-07-24T22:24:25.637Z,12.90
2017-07-24T22:29:13.041Z,12.70
2017-07-24T22:33:59.707Z,12.70
2017-07-24T22:38:47.061Z,12.60
2017-07-24T22:43:33.732Z,12.50
2017-07-24T22:48:20.492Z,12.50
2017-07-24T22:53:08.056Z,12.50
2017-07-24T22:57:54.796Z,12.40
2017-07-24T23:02:41.409Z,12.40
2017-07-24T23:07:28.031Z,12.40
2017-07-24T23:12:14.685Z,12.40
2017-07-24T23:17:01.306Z,12.40
2017-07-24T23:21:48.019Z,12.40
2017-07-24T23:26:34.676Z,12.50
2017-07-24T23:31:22.074Z,12.80
2017-07-24T23:36:08.683Z,12.70
2017-07-24T23:40:55.347Z,12.90
2017-07-24T23:45:42.705Z,13.00
2017-07-24T23:50:29.693Z,12.90
2017-07-24T23:55:16.321Z,12.90
